Time;durP1;ratioP1;P1;durP2;ratioP2;P2;SDS_P1;SDS_P2;PMS_P1;PMS_P2;Temp;Humidity;BMP_temperature;BMP_pressure;BME280_temperature;BME280_humidity;BME280_pressure;Samples;Min_cycle;Max_cycle;Signal;HPM_P1;HPM_P2
2022/12/27 00:01:20;;;;;;;9.90;3.92;;;7.50;71.00;;;;;;5033891;28;20096;-76
2022/12/27 00:03:46;;;;;;;10.30;3.72;;;7.50;71.70;;;;;;5024744;28;20029;-75
2022/12/27 00:06:18;;;;;;;11.80;4.35;;;7.50;71.10;;;;;;5032465;28;20037;-76
2022/12/27 00:08:44;;;;;;;;;;;7.50;71.10;;;;;;5033327;28;20021;-76
2022/12/27 00:11:12;;;;;;;9.02;3.42;;;7.50;71.20;;;;;;5011985;28;20227;-76
2022/12/27 00:13:38;;;;;;;8.43;3.78;;;7.40;71.20;;;;;;5029406;28;20034;-76
2022/12/27 00:16:11;;;;;;;9.18;3.47;;;7.40;71.30;;;;;;5048287;28;20021;-76
2022/12/27 00:18:38;;;;;;;8.50;3.80;;;7.40;71.30;;;;;;5065931;28;20365;-76
2022/12/27 00:21:05;;;;;;;8.93;3.22;;;7.50;71.40;;;;;;5033645;28;20037;-75
2022/12/27 00:23:34;;;;;;;9.13;3.70;;;7.50;71.40;;;;;;5031178;28;20029;-76
2022/12/27 00:26:01;;;;;;;8.77;4.00;;;7.50;71.40;;;;;;5027522;28;20077;-75
2022/12/27 00:28:30;;;;;;;8.32;4.05;;;7.50;71.50;;;;;;5016320;28;20049;-75
2022/12/27 00:30:56;;;;;;;11.18;4.25;;;7.50;71.50;;;;;;5033557;28;20030;-76
2022/12/27 00:33:22;;;;;;;10.17;3.80;;;7.50;71.60;;;;;;5033529;28;20026;-75
2022/12/27 00:35:48;;;;;;;7.00;3.38;;;7.50;71.60;;;;;;5049467;28;20044;-75
2022/12/27 00:38:13;;;;;;;10.45;4.15;;;7.50;71.70;;;;;;5031737;28;20457;-75
2022/12/27 00:40:40;;;;;;;11.35;4.00;;;7.50;71.70;;;;;;5032806;28;20078;-76
2022/12/27 00:43:06;;;;;;;7.65;3.33;;;7.40;71.80;;;;;;5029070;28;20053;-76
2022/12/27 00:45:31;;;;;;;10.32;3.53;;;7.40;71.90;;;;;;5024830;28;20029;-75
2022/12/27 00:47:57;;;;;;;9.63;4.00;;;7.40;71.90;;;;;;5033576;28;20099;-75
2022/12/27 00:50:23;;;;;;;10.15;3.67;;;7.40;71.90;;;;;;5037245;28;20095;-75
2022/12/27 00:52:49;;;;;;;8.23;3.78;;;7.40;72.00;;;;;;5023314;28;20458;-76
2022/12/27 00:55:16;;;;;;;9.55;3.92;;;7.40;72.00;;;;;;5034598;28;20378;-75
2022/12/27 00:57:44;;;;;;;11.67;4.10;;;7.40;72.10;;;;;;5019087;28;20041;-75
2022/12/27 01:00:11;;;;;;;10.33;3.83;;;7.40;72.10;;;;;;5069317;28;20434;-76
2022/12/27 01:02:36;;;;;;;10.32;3.78;;;7.40;72.20;;;;;;5035276;28;20038;-75
2022/12/27 01:05:02;;;;;;;9.23;3.78;;;7.40;72.20;;;;;;5035953;28;20038;-75
2022/12/27 01:07:28;;;;;;;9.00;3.93;;;7.40;72.30;;;;;;5040194;28;20029;-75
2022/12/27 01:09:53;;;;;;;9.33;4.00;;;7.40;72.30;;;;;;5045377;28;20050;-76
2022/12/27 01:12:19;;;;;;;8.63;3.42;;;7.40;72.30;;;;;;5031048;28;20029;-76
2022/12/27 01:14:45;;;;;;;10.23;3.22;;;7.40;72.40;;;;;;5068549;28;20358;-75
2022/12/27 01:17:10;;;;;;;9.27;3.80;;;7.40;72.40;;;;;;5047161;28;20103;-76
2022/12/27 01:19:38;;;;;;;9.88;3.80;;;7.30;72.50;;;;;;5035346;28;20037;-76
2022/12/27 01:22:05;;;;;;;8.40;3.17;;;7.30;72.50;;;;;;5033349;28;20064;-75
2022/12/27 01:24:32;;;;;;;8.33;3.67;;;7.30;72.60;;;;;;5034475;28;20104;-75
2022/12/27 01:26:57;;;;;;;10.03;3.70;;;7.30;72.60;;;;;;5034197;28;20056;-75
2022/12/27 01:29:23;;;;;;;10.27;4.68;;;7.30;72.60;;;;;;5025023;28;20025;-75
2022/12/27 01:31:49;;;;;;;11.97;4.37;;;7.30;72.60;;;;;;5014935;28;20034;-75
2022/12/27 01:34:16;;;;;;;8.48;3.67;;;7.30;72.70;;;;;;5038822;28;20557;-75
2022/12/27 01:36:42;;;;;;;10.90;4.13;;;7.30;72.60;;;;;;5038848;28;20346;-76
2022/12/27 01:39:10;;;;;;;7.77;3.63;;;7.30;72.60;;;;;;5045895;28;20040;-75
2022/12/27 01:47:21;;;;;;;9.18;3.75;;;7.30;72.80;;;;;;5035214;28;20341;-75
2022/12/27 01:50:10;;;;;;;10.77;3.85;;;7.30;72.80;;;;;;5048897;28;20060;-76
2022/12/27 01:52:55;;;;;;;7.07;3.50;;;7.30;72.90;;;;;;5033582;28;20100;-75
2022/12/27 01:55:29;;;;;;;8.25;3.83;;;7.30;73.00;;;;;;5047492;28;20025;-75
2022/12/27 01:58:02;;;;;;;9.40;4.10;;;7.30;72.90;;;;;;5050793;28;20036;-76
2022/12/27 02:00:28;;;;;;;12.13;4.97;;;7.30;73.00;;;;;;5065160;28;20033;-75
2022/12/27 02:02:53;;;;;;;8.27;3.90;;;7.30;73.00;;;;;;5043279;28;20025;-76
2022/12/27 02:05:21;;;;;;;9.68;4.15;;;7.30;73.00;;;;;;5018875;28;20035;-75
2022/12/27 02:08:06;;;;;;;12.18;4.80;;;7.20;73.00;;;;;;5045565;28;20430;-76
2022/12/27 02:10:32;;;;;;;7.40;3.88;;;7.30;73.10;;;;;;5058452;28;20096;-76
2022/12/27 02:12:59;;;;;;;10.73;4.00;;;7.30;73.20;;;;;;5034840;28;20021;-75
2022/12/27 02:15:25;;;;;;;9.97;3.80;;;7.20;73.20;;;;;;5033776;28;20093;-75
2022/12/27 02:17:50;;;;;;;9.60;3.93;;;7.20;73.20;;;;;;5017641;28;20061;-75
2022/12/27 02:20:21;;;;;;;11.13;4.73;;;7.20;73.30;;;;;;5049562;28;20030;-76
2022/12/27 02:26:34;;;;;;;11.03;3.90;;;7.30;73.50;;;;;;5034285;28;20358;-76
2022/12/27 02:29:18;;;;;;;11.52;4.18;;;7.20;73.80;;;;;;5034821;28;20083;-76
2022/12/27 02:32:00;;;;;;;9.77;4.20;;;7.30;73.60;;;;;;5037957;28;20108;-76
2022/12/27 02:34:33;;;;;;;11.48;3.67;;;7.30;73.80;;;;;;5021367;28;20025;-76
2022/12/27 02:37:05;;;;;;;7.72;3.00;;;7.30;73.90;;;;;;5034362;28;20030;-76
2022/12/27 02:39:37;;;;;;;7.35;3.33;;;7.30;74.10;;;;;;5035894;28;20351;-76
2022/12/27 02:53:32;;;;;;;11.40;3.25;;;7.40;74.70;;;;;;5032600;28;20025;-76
2022/12/27 02:59:19;;;;;;;6.45;3.05;;;7.40;74.90;;;;;;5021023;28;20038;-76
2022/12/27 03:04:59;;;;;;;9.50;3.63;;;7.30;75.10;;;;;;5032680;28;20037;-76
2022/12/27 03:07:28;;;;;;;10.88;4.10;;;7.30;75.20;;;;;;5046251;28;20037;-76
2022/12/27 03:16:18;;;;;;;6.97;2.72;;;7.30;75.50;;;;;;5027165;28;20025;-76
2022/12/27 03:25:26;;;;;;;11.13;3.20;;;7.30;75.40;;;;;;5032540;28;20056;-76
2022/12/27 03:27:38;;;;;;;9.75;3.70;;;7.30;75.50;;;;;;5031263;28;20037;-77
2022/12/27 03:33:12;;;;;;;11.77;4.15;;;7.30;75.50;;;;;;5031855;28;20032;-76
2022/12/27 03:38:46;;;;;;;11.65;3.72;;;7.20;75.50;;;;;;5033428;28;20040;-76
2022/12/27 03:44:23;;;;;;;9.43;3.27;;;7.20;75.70;;;;;;5046764;28;20361;-76
2022/12/27 03:46:59;;;;;;;8.73;2.92;;;7.20;75.80;;;;;;5048607;28;20423;-77
2022/12/27 03:49:43;;;;;;;9.63;3.93;;;7.20;75.80;;;;;;5037367;28;20408;-77
2022/12/27 03:52:17;;;;;;;10.48;3.55;;;7.30;75.90;;;;;;5038911;28;20064;-76
2022/12/27 03:54:48;;;;;;;8.30;3.30;;;7.30;75.90;;;;;;5065935;28;20029;-76
2022/12/27 03:57:17;;;;;;;9.75;3.90;;;7.30;75.90;;;;;;5034641;28;20108;-77
2022/12/27 03:59:43;;;;;;;10.23;4.17;;;7.30;76.00;;;;;;5034084;28;20043;-77
2022/12/27 04:02:10;;;;;;;10.90;4.65;;;7.30;76.00;;;;;;5033589;28;20030;-76
2022/12/27 04:04:36;;;;;;;9.23;3.67;;;7.30;76.10;;;;;;5046545;28;20112;-76
2022/12/27 04:07:02;;;;;;;10.27;3.60;;;7.30;76.10;;;;;;5064816;28;20040;-76
2022/12/27 04:36:53;;;;;;;9.07;3.57;;;7.30;76.30;;;;;;5037283;28;20359;-76
2022/12/27 04:39:19;;;;;;;9.55;3.47;;;7.30;76.30;;;;;;5067743;28;20030;-76
2022/12/27 04:55:29;;;;;;;10.77;3.42;;;7.10;76.50;;;;;;5037687;28;20033;-77
2022/12/27 04:57:56;;;;;;;9.10;2.90;;;7.10;76.60;;;;;;5039091;28;20109;-76
2022/12/27 05:03:19;;;;;;;10.00;4.07;;;7.10;76.60;;;;;;5037180;28;20033;-76
2022/12/27 05:05:45;;;;;;;11.03;3.27;;;7.10;76.70;;;;;;5039565;28;20030;-76
2022/12/27 05:14:00;;;;;;;9.77;3.47;;;7.10;76.70;;;;;;5027761;28;20122;-76
2022/12/27 05:16:31;;;;;;;12.37;3.10;;;7.10;76.60;;;;;;5032257;28;20027;-76
2022/12/27 05:18:58;;;;;;;10.67;4.00;;;7.10;76.60;;;;;;5034949;28;20032;-76
2022/12/27 05:21:26;;;;;;;7.70;2.83;;;7.10;76.70;;;;;;5034097;28;20052;-76
2022/12/27 05:26:37;;;;;;;10.80;3.57;;;7.10;76.80;;;;;;5031939;28;20088;-76
2022/12/27 05:29:03;;;;;;;10.85;3.75;;;7.10;76.80;;;;;;5052136;28;20095;-76
2022/12/27 05:31:29;;;;;;;8.40;3.43;;;7.10;76.90;;;;;;5030522;28;20033;-76
2022/12/27 05:33:56;;;;;;;8.37;3.13;;;7.10;76.90;;;;;;5034391;28;20029;-76
2022/12/27 05:36:21;;;;;;;7.63;3.25;;;7.10;76.90;;;;;;5034819;28;20076;-76
2022/12/27 05:38:47;;;;;;;10.10;3.50;;;7.10;76.90;;;;;;5031327;28;20088;-76
2022/12/27 05:41:15;;;;;;;7.87;3.50;;;7.10;76.90;;;;;;5012509;28;20528;-76
2022/12/27 05:43:41;;;;;;;10.10;3.77;;;7.10;76.90;;;;;;5033652;28;20034;-76
2022/12/27 05:46:15;;;;;;;10.70;3.33;;;7.10;77.00;;;;;;5035425;28;20207;-76
2022/12/27 05:48:41;;;;;;;9.27;3.53;;;7.10;77.00;;;;;;5064025;28;20030;-76
2022/12/27 05:51:09;;;;;;;8.53;3.37;;;7.00;77.00;;;;;;5033982;28;20128;-75
2022/12/27 05:53:35;;;;;;;12.27;4.13;;;7.10;77.10;;;;;;5035231;28;20041;-76
2022/12/27 05:56:01;;;;;;;11.87;3.57;;;7.00;77.00;;;;;;5021181;28;20401;-76
2022/12/27 05:58:28;;;;;;;9.07;3.17;;;7.10;77.10;;;;;;5034976;28;20025;-76
2022/12/27 06:00:53;;;;;;;11.13;3.43;;;7.10;77.10;;;;;;5040327;28;20387;-76
2022/12/27 06:03:19;;;;;;;14.25;3.85;;;7.00;77.10;;;;;;5034891;28;20111;-77
2022/12/27 06:05:45;;;;;;;10.37;3.30;;;7.00;77.10;;;;;;5033756;28;20465;-77
2022/12/27 06:08:13;;;;;;;7.85;3.08;;;7.10;77.20;;;;;;5018159;28;20045;-78
2022/12/27 06:10:39;;;;;;;8.97;2.87;;;7.10;77.20;;;;;;5031650;28;20048;-77
2022/12/27 06:13:05;;;;;;;8.00;2.90;;;7.00;77.20;;;;;;5051140;28;20447;-77
2022/12/27 06:15:30;;;;;;;9.20;2.87;;;7.00;77.20;;;;;;5067123;28;20025;-78
2022/12/27 06:17:58;;;;;;;7.97;3.03;;;7.00;77.30;;;;;;5033847;28;20117;-77
2022/12/27 06:20:25;;;;;;;13.60;3.20;;;7.00;77.30;;;;;;5032144;28;20034;-77
2022/12/27 06:22:51;;;;;;;13.13;3.77;;;7.00;77.30;;;;;;5021315;28;20112;-77
2022/12/27 06:25:19;;;;;;;8.77;3.60;;;7.00;77.30;;;;;;5016244;28;20489;-75
2022/12/27 06:27:44;;;;;;;9.55;3.42;;;7.00;77.30;;;;;;5034440;28;20293;-74
2022/12/27 06:30:12;;;;;;;11.70;3.20;;;7.00;77.30;;;;;;5035546;28;20025;-75
2022/12/27 06:32:37;;;;;;;12.67;3.53;;;7.00;77.30;;;;;;5032690;28;20477;-77
2022/12/27 06:35:04;;;;;;;12.07;3.17;;;7.00;77.30;;;;;;5032900;28;20062;-77
2022/12/27 06:37:30;;;;;;;11.50;3.50;;;7.00;77.30;;;;;;5039986;28;20114;-76
2022/12/27 06:39:56;;;;;;;8.97;3.00;;;7.00;77.30;;;;;;5030823;28;20116;-75
2022/12/27 06:42:22;;;;;;;7.93;2.70;;;7.00;77.30;;;;;;5032786;28;20029;-75
2022/12/27 06:44:48;;;;;;;8.77;2.57;;;7.00;77.30;;;;;;5032584;28;20355;-75
2022/12/27 06:47:13;;;;;;;7.73;2.97;;;7.00;77.30;;;;;;5015991;28;20030;-75
2022/12/27 06:49:39;;;;;;;8.40;3.20;;;7.00;77.40;;;;;;5050953;28;20095;-75
2022/12/27 06:52:07;;;;;;;8.37;2.70;;;7.00;77.40;;;;;;5014077;28;20057;-75
2022/12/27 06:54:34;;;;;;;11.17;2.90;;;6.90;77.40;;;;;;5031213;28;20029;-75
2022/12/27 06:56:59;;;;;;;9.70;2.80;;;6.90;77.40;;;;;;5066411;28;20037;-75
2022/12/27 06:59:25;;;;;;;10.03;2.83;;;6.90;77.40;;;;;;5015436;28;20408;-75
2022/12/27 07:01:51;;;;;;;10.00;2.97;;;6.90;77.50;;;;;;5029705;28;20074;-75
2022/12/27 07:04:17;;;;;;;9.40;2.90;;;6.90;77.50;;;;;;5042964;28;20048;-75
2022/12/27 07:06:42;;;;;;;7.63;2.90;;;6.90;77.50;;;;;;5016719;28;20163;-75
2022/12/27 07:09:08;;;;;;;11.10;3.20;;;6.90;77.50;;;;;;5050288;28;20443;-75
2022/12/27 07:11:38;;;;;;;9.90;3.30;;;6.90;77.50;;;;;;5015436;28;20039;-76
2022/12/27 07:14:08;;;;;;;7.47;3.10;;;6.90;77.50;;;;;;5050290;28;20022;-76
2022/12/27 07:16:35;;;;;;;8.37;3.67;;;6.90;77.50;;;;;;5048034;28;20121;-76
2022/12/27 07:19:00;;;;;;;7.45;3.22;;;6.80;77.50;;;;;;5049768;28;20025;-75
2022/12/27 07:21:27;;;;;;;11.53;3.23;;;6.80;77.50;;;;;;5034888;28;20031;-77
2022/12/27 07:23:53;;;;;;;12.00;3.53;;;6.90;77.60;;;;;;5031818;28;20033;-77
2022/12/27 07:26:22;;;;;;;9.60;3.43;;;6.90;77.60;;;;;;5066316;28;20069;-79
2022/12/27 07:28:48;;;;;;;9.23;2.83;;;6.90;77.60;;;;;;5033395;28;20040;-78
2022/12/27 07:31:22;;;;;;;6.73;2.80;;;7.00;77.50;;;;;;5019301;28;20021;-78
2022/12/27 07:33:48;;;;;;;9.30;2.70;;;7.00;77.50;;;;;;5035836;28;20040;-78
2022/12/27 07:36:19;;;;;;;9.20;3.10;;;7.00;77.50;;;;;;5033355;28;20033;-78
2022/12/27 07:38:45;;;;;;;8.25;2.97;;;7.00;77.40;;;;;;5034632;28;20434;-75
2022/12/27 07:41:12;;;;;;;10.53;3.07;;;7.00;77.30;;;;;;5036963;28;20041;-75
2022/12/27 07:43:38;;;;;;;9.67;3.53;;;7.00;77.40;;;;;;5054909;28;20033;-75
2022/12/27 07:46:12;;;;;;;7.80;2.87;;;7.00;77.40;;;;;;5032578;28;20090;-75
2022/12/27 07:48:39;;;;;;;7.37;3.10;;;7.00;77.50;;;;;;5036870;28;20040;-75
2022/12/27 07:51:05;;;;;;;8.00;3.20;;;6.90;77.40;;;;;;5036413;28;20115;-76
2022/12/27 07:53:31;;;;;;;8.33;2.73;;;6.90;77.50;;;;;;5033306;28;20435;-75
2022/12/27 07:56:03;;;;;;;7.80;2.60;;;6.90;77.50;;;;;;5041558;28;20505;-75
2022/12/27 07:58:29;;;;;;;9.70;2.83;;;6.90;77.50;;;;;;5050702;28;20037;-75
2022/12/27 08:00:55;;;;;;;7.70;3.00;;;6.90;77.50;;;;;;5048058;28;20029;-76
2022/12/27 08:03:21;;;;;;;10.33;3.57;;;6.90;78.10;;;;;;5037203;28;20049;-75
2022/12/27 08:05:48;;;;;;;10.67;4.10;;;6.90;77.50;;;;;;5035112;28;20104;-78
2022/12/27 08:08:16;;;;;;;10.73;3.40;;;6.90;77.50;;;;;;5041135;28;20427;-76
2022/12/27 08:10:42;;;;;;;8.40;3.20;;;6.90;77.60;;;;;;5069310;28;20037;-76
2022/12/27 08:13:08;;;;;;;9.00;3.53;;;6.90;77.50;;;;;;5069086;28;20413;-76
2022/12/27 08:15:36;;;;;;;8.73;3.33;;;6.90;77.50;;;;;;5067830;28;20021;-76
2022/12/27 08:18:02;;;;;;;9.50;3.67;;;6.90;77.50;;;;;;5035964;28;20120;-76
2022/12/27 08:20:28;;;;;;;10.07;3.47;;;6.90;77.50;;;;;;5035823;28;20116;-77
2022/12/27 08:22:53;;;;;;;10.63;3.90;;;7.00;77.60;;;;;;5033780;28;20026;-76
2022/12/27 08:25:19;;;;;;;10.07;3.40;;;6.90;77.50;;;;;;5034032;28;20113;-76
2022/12/27 08:27:45;;;;;;;10.50;3.50;;;7.00;77.50;;;;;;5034546;28;20064;-76
2022/12/27 08:30:11;;;;;;;11.13;3.33;;;7.00;77.50;;;;;;5045557;28;20442;-75
2022/12/27 08:32:36;;;;;;;11.07;4.30;;;7.00;77.50;;;;;;5036509;28;20044;-75
2022/12/27 08:35:02;;;;;;;10.47;3.63;;;7.10;77.50;;;;;;5066430;28;20029;-77
2022/12/27 08:37:27;;;;;;;9.90;3.60;;;7.10;77.50;;;;;;5036112;28;20335;-76
2022/12/27 08:39:53;;;;;;;10.18;4.05;;;7.20;77.50;;;;;;5041451;28;20187;-76
2022/12/27 08:42:19;;;;;;;7.93;3.80;;;7.20;77.40;;;;;;5022397;28;20041;-76
2022/12/27 08:44:45;;;;;;;11.27;3.97;;;7.30;77.30;;;;;;5040270;28;20061;-75
2022/12/27 08:47:11;;;;;;;7.93;3.80;;;7.30;77.20;;;;;;5034235;28;20040;-76
2022/12/27 08:49:37;;;;;;;12.60;3.63;;;7.40;77.10;;;;;;5051069;28;20040;-76
2022/12/27 08:52:03;;;;;;;10.53;3.80;;;7.40;77.00;;;;;;5021234;28;20132;-76
2022/12/27 08:54:29;;;;;;;11.18;4.22;;;7.40;76.90;;;;;;5041175;28;20631;-77
2022/12/27 08:56:55;;;;;;;8.57;3.97;;;7.50;77.00;;;;;;5046349;28;20029;-76
2022/12/27 08:59:21;;;;;;;11.68;4.07;;;7.50;76.90;;;;;;5037619;28;20497;-77
2022/12/27 09:01:49;;;;;;;12.73;4.17;;;7.60;77.00;;;;;;5044381;28;20054;-78
2022/12/27 09:04:15;;;;;;;13.03;4.80;;;7.60;76.80;;;;;;5040414;28;20359;-79
2022/12/27 09:06:42;;;;;;;11.45;3.60;;;7.60;76.70;;;;;;5031116;28;20037;-80
2022/12/27 09:09:08;;;;;;;7.60;3.53;;;7.60;76.70;;;;;;5043660;28;20022;-78
2022/12/27 09:11:34;;;;;;;9.77;3.47;;;7.60;76.70;;;;;;5043409;28;20075;-76
2022/12/27 09:14:03;;;;;;;11.80;4.27;;;7.70;76.70;;;;;;5032213;28;20488;-75
2022/12/27 09:16:30;;;;;;;11.70;3.30;;;7.70;76.70;;;;;;5031994;28;20414;-78
2022/12/27 09:18:59;;;;;;;8.03;4.00;;;7.80;76.70;;;;;;5034876;28;20036;-77
2022/12/27 09:21:28;;;;;;;9.97;4.20;;;7.80;76.70;;;;;;5022998;28;20355;-77
2022/12/27 09:23:55;;;;;;;12.13;4.07;;;7.80;76.60;;;;;;5031564;28;20029;-79
2022/12/27 09:26:23;;;;;;;10.27;3.60;;;7.80;76.70;;;;;;5041150;28;20112;-78
2022/12/27 09:28:49;;;;;;;9.77;3.42;;;7.80;76.70;;;;;;5016039;28;20072;-78
2022/12/27 09:31:16;;;;;;;9.27;3.53;;;7.80;76.70;;;;;;5035874;28;20022;-79
2022/12/27 09:33:43;;;;;;;11.52;4.00;;;7.80;76.80;;;;;;5037986;28;20112;-78
2022/12/27 09:36:14;;;;;;;10.88;3.60;;;7.80;76.90;;;;;;5051707;28;20025;-78
2022/12/27 09:38:41;;;;;;;9.73;4.20;;;7.90;76.90;;;;;;5018915;28;20029;-78
2022/12/27 09:41:19;;;;;;;10.73;4.97;;;7.90;76.80;;;;;;5067932;28;20052;-79
2022/12/27 09:43:56;;;;;;;9.80;4.33;;;7.90;76.80;;;;;;5018547;28;20029;-78
2022/12/27 09:46:30;;;;;;;9.50;4.13;;;8.00;76.70;;;;;;5032167;28;20034;-78
2022/12/27 09:48:56;;;;;;;10.03;4.20;;;8.00;76.60;;;;;;5033329;28;20037;-79
2022/12/27 09:51:36;;;;;;;12.43;4.00;;;8.00;76.70;;;;;;5035292;28;20029;-78
2022/12/27 09:54:14;;;;;;;9.45;4.18;;;8.00;76.80;;;;;;5034876;28;20033;-77
2022/12/27 09:56:40;;;;;;;11.60;4.30;;;8.00;76.80;;;;;;5055667;28;20029;-77
2022/12/27 09:59:18;;;;;;;7.68;4.30;;;7.90;76.80;;;;;;5066898;28;20033;-77
2022/12/27 10:01:46;;;;;;;9.65;4.50;;;7.90;76.90;;;;;;5030072;28;20072;-76
2022/12/27 10:04:13;;;;;;;12.27;4.90;;;7.90;76.90;;;;;;5032518;28;20028;-77
2022/12/27 10:06:48;;;;;;;12.05;4.65;;;7.90;76.90;;;;;;5017986;28;20033;-79
2022/12/27 10:09:47;;;;;;;11.98;4.70;;;8.00;77.00;;;;;;5033935;28;20017;-78
2022/12/27 10:12:37;;;;;;;10.50;4.35;;;8.00;76.90;;;;;;5015468;28;20057;-78
2022/12/27 10:15:30;;;;;;;9.53;4.47;;;8.00;76.90;;;;;;5034991;28;20451;-78
2022/12/27 10:18:33;;;;;;;11.82;4.13;;;8.00;77.00;;;;;;5034914;28;20044;-78
2022/12/27 10:21:17;;;;;;;10.63;4.65;;;8.00;77.00;;;;;;5047372;28;20044;-76
2022/12/27 10:23:57;;;;;;;9.32;4.60;;;8.00;77.00;;;;;;5034733;28;20048;-79
2022/12/27 10:26:23;;;;;;;10.32;4.40;;;8.00;77.00;;;;;;5066829;28;20045;-80
2022/12/27 10:29:27;;;;;;;9.57;5.07;;;8.00;77.10;;;;;;5066249;28;20378;-78
2022/12/27 10:31:53;;;;;;;9.53;4.87;;;8.00;77.10;;;;;;5040121;28;20044;-79
2022/12/27 10:34:25;;;;;;;10.70;4.65;;;8.00;77.20;;;;;;5085721;28;20021;-78
2022/12/27 10:36:54;;;;;;;8.90;4.97;;;8.10;77.30;;;;;;5070266;28;20052;-78
2022/12/27 10:39:27;;;;;;;15.63;6.07;;;8.10;77.30;;;;;;5051176;28;20032;-78
2022/12/27 10:42:05;;;;;;;13.55;7.15;;;8.10;77.20;;;;;;5045842;28;20033;-78
2022/12/27 10:44:31;;;;;;;13.18;6.07;;;8.10;77.20;;;;;;5033689;28;20146;-80
2022/12/27 10:46:58;;;;;;;13.38;6.38;;;8.20;77.10;;;;;;5006318;28;20072;-77
2022/12/27 10:49:30;;;;;;;14.07;6.88;;;8.20;77.10;;;;;;5042923;28;20056;-79
2022/12/27 10:52:22;;;;;;;12.00;6.57;;;8.20;77.10;;;;;;5034376;28;20362;-79
2022/12/27 10:54:53;;;;;;;13.25;6.25;;;8.30;77.10;;;;;;5034016;28;20130;-80
2022/12/27 10:57:30;;;;;;;13.40;6.57;;;8.30;77.10;;;;;;5046290;28;20460;-80
2022/12/27 11:00:15;;;;;;;10.10;5.75;;;8.40;77.00;;;;;;5046766;28;20450;-80
2022/12/27 11:02:55;;;;;;;12.45;6.68;;;8.40;76.90;;;;;;5036561;28;20041;-80
2022/12/27 11:05:34;;;;;;;11.40;6.05;;;8.50;76.90;;;;;;5059302;28;20029;-80
2022/12/27 11:08:19;;;;;;;12.27;5.65;;;8.60;76.70;;;;;;5047683;28;20056;-80
2022/12/27 11:10:45;;;;;;;11.98;5.95;;;8.80;76.60;;;;;;5043671;28;20029;-79
2022/12/27 11:13:24;;;;;;;12.88;6.43;;;8.80;76.50;;;;;;5051482;28;20018;-77
2022/12/27 11:15:54;;;;;;;12.75;6.07;;;8.80;76.50;;;;;;5008495;28;20339;-78
2022/12/27 11:18:21;;;;;;;12.90;6.07;;;8.80;76.50;;;;;;5038306;28;20455;-79
2022/12/27 11:20:50;;;;;;;10.45;5.30;;;8.80;76.60;;;;;;5022462;28;20283;-78
2022/12/27 11:23:19;;;;;;;10.40;5.25;;;8.90;76.70;;;;;;5032993;28;20036;-78
2022/12/27 11:25:56;;;;;;;11.75;5.47;;;8.90;76.60;;;;;;5032705;28;20378;-78
2022/12/27 11:28:31;;;;;;;11.73;5.43;;;9.00;76.50;;;;;;5029839;28;20040;-79
2022/12/27 11:31:08;;;;;;;14.60;5.38;;;9.00;76.40;;;;;;5027601;28;20061;-80
2022/12/27 11:33:49;;;;;;;10.65;4.88;;;9.00;76.40;;;;;;5040655;28;20036;-80
2022/12/27 11:36:27;;;;;;;9.50;4.68;;;9.10;76.30;;;;;;5051170;28;20032;-79
2022/12/27 11:38:54;;;;;;;11.23;4.82;;;9.10;76.10;;;;;;5038445;28;20017;-75
2022/12/27 11:41:39;;;;;;;10.25;4.82;;;9.10;76.10;;;;;;5033919;28;20013;-77
2022/12/27 11:44:25;;;;;;;10.00;4.57;;;9.10;76.30;;;;;;5058171;28;20025;-76
2022/12/27 11:46:57;;;;;;;10.95;4.88;;;9.20;76.30;;;;;;5045576;28;20396;-76
2022/12/27 11:49:28;;;;;;;;;;;9.20;76.30;;;;;;5052092;28;20032;-76
2022/12/27 11:52:28;;;;;;;9.52;3.90;;;9.10;76.20;;;;;;5053205;28;20298;-76
2022/12/27 11:55:35;;;;;;;8.52;3.80;;;9.20;76.20;;;;;;5045064;28;20033;-76
2022/12/27 11:58:31;;;;;;;8.90;3.40;;;9.10;76.10;;;;;;5012084;28;20394;-77
2022/12/27 12:01:26;;;;;;;10.90;3.45;;;9.10;76.20;;;;;;4994062;28;20061;-77
2022/12/27 12:04:19;;;;;;;9.05;3.70;;;9.10;76.30;;;;;;5009160;28;20030;-77
2022/12/27 12:07:12;;;;;;;9.18;3.83;;;9.20;76.30;;;;;;5013227;28;20163;-77
2022/12/27 12:10:17;;;;;;;10.93;3.83;;;9.20;76.20;;;;;;4995606;28;20045;-77
2022/12/27 12:13:24;;;;;;;7.18;3.10;;;9.30;76.10;;;;;;4977490;28;20081;-77
2022/12/27 12:16:17;;;;;;;9.23;2.78;;;9.30;76.00;;;;;;4995544;28;20030;-77
2022/12/27 12:18:55;;;;;;;11.45;3.90;;;9.30;76.00;;;;;;5015634;28;20084;-77
2022/12/27 12:21:54;;;;;;;6.75;2.83;;;9.30;76.10;;;;;;5032863;28;20072;-76
2022/12/27 12:24:35;;;;;;;9.05;3.50;;;9.30;76.00;;;;;;5009592;28;20037;-76
2022/12/27 12:27:27;;;;;;;7.50;2.92;;;9.40;76.00;;;;;;5015159;28;20041;-76
2022/12/27 12:30:38;;;;;;;10.85;3.75;;;9.40;76.00;;;;;;5006224;28;20026;-76
2022/12/27 12:33:32;;;;;;;7.28;3.40;;;9.40;76.00;;;;;;5035179;28;20076;-77
2022/12/27 12:36:22;;;;;;;7.05;2.42;;;9.50;76.00;;;;;;5046926;28;20032;-77
2022/12/27 12:39:08;;;;;;;11.38;3.38;;;9.50;75.90;;;;;;5034596;28;20029;-76
2022/12/27 12:41:43;;;;;;;9.77;3.33;;;9.50;75.90;;;;;;5051121;28;20045;-76
2022/12/27 12:44:27;;;;;;;9.23;3.03;;;9.60;75.90;;;;;;5044916;28;20479;-76
2022/12/27 12:46:59;;;;;;;6.40;2.92;;;9.60;75.80;;;;;;5038925;28;20478;-76
2022/12/27 12:49:29;;;;;;;12.32;3.30;;;9.60;75.70;;;;;;5036969;28;20036;-76
2022/12/27 12:52:21;;;;;;;11.73;3.38;;;9.60;75.60;;;;;;5068941;28;20333;-76
2022/12/27 12:55:35;;;;;;;7.47;2.67;;;9.70;75.60;;;;;;5032616;28;20033;-76
2022/12/27 12:58:18;;;;;;;7.57;3.00;;;9.70;75.60;;;;;;5037313;28;20608;-76
2022/12/27 13:01:02;;;;;;;9.18;3.10;;;9.70;75.60;;;;;;5019481;28;20376;-76
2022/12/27 13:03:48;;;;;;;9.48;3.35;;;9.70;75.60;;;;;;5027873;28;20025;-76
2022/12/27 13:06:36;;;;;;;11.02;3.35;;;9.60;75.60;;;;;;5033183;28;20033;-76
2022/12/27 13:09:21;;;;;;;6.85;2.78;;;9.60;75.70;;;;;;5029974;28;20041;-76
2022/12/27 13:12:10;;;;;;;10.15;3.28;;;9.60;75.80;;;;;;5032809;28;20044;-75
2022/12/27 13:15:00;;;;;;;6.95;2.97;;;9.50;75.80;;;;;;5041841;28;20541;-77
2022/12/27 13:17:45;;;;;;;8.43;2.58;;;9.50;75.80;;;;;;5050673;28;20036;-77
2022/12/27 13:20:37;;;;;;;6.55;3.15;;;9.50;76.00;;;;;;5048414;28;20028;-74
2022/12/27 13:23:15;;;;;;;10.00;3.45;;;9.50;76.00;;;;;;5054885;28;20099;-75
2022/12/27 13:26:16;;;;;;;9.32;2.72;;;9.40;76.10;;;;;;5070487;28;20057;-75
2022/12/27 13:29:00;;;;;;;8.18;3.47;;;9.40;76.00;;;;;;5060306;28;20378;-75
2022/12/27 13:31:51;;;;;;;7.82;3.65;;;9.40;76.00;;;;;;5071321;28;20094;-75
2022/12/27 13:34:47;;;;;;;7.70;3.10;;;9.50;76.10;;;;;;5015019;28;20041;-76
2022/12/27 13:37:40;;;;;;;6.65;3.03;;;9.50;76.00;;;;;;5002622;28;20527;-75
2022/12/27 13:40:28;;;;;;;9.98;2.67;;;9.50;76.10;;;;;;5014589;28;20041;-75
2022/12/27 13:43:35;;;;;;;8.23;3.20;;;9.50;76.00;;;;;;5008039;28;20510;-76
2022/12/27 13:46:24;;;;;;;7.55;3.00;;;9.50;76.00;;;;;;5004486;28;20073;-72
2022/12/27 13:49:04;;;;;;;9.25;3.45;;;9.50;76.00;;;;;;4989994;28;20041;-76
2022/12/27 13:51:51;;;;;;;10.10;2.97;;;9.60;76.00;;;;;;5002478;28;20116;-75
2022/12/27 13:54:37;;;;;;;7.50;3.08;;;9.60;76.00;;;;;;5014102;28;20042;-77
2022/12/27 13:57:22;;;;;;;10.48;3.08;;;9.60;75.90;;;;;;5015316;28;20026;-76
2022/12/27 14:00:16;;;;;;;10.07;2.90;;;9.60;76.00;;;;;;5015128;28;20124;-76
2022/12/27 14:03:17;;;;;;;9.55;3.13;;;9.60;76.00;;;;;;4992695;28;20129;-76
2022/12/27 14:06:11;;;;;;;9.48;3.13;;;9.60;76.00;;;;;;5015286;28;20034;-75
2022/12/27 14:09:05;;;;;;;11.75;3.42;;;9.60;76.00;;;;;;4988167;28;20042;-76
2022/12/27 14:12:13;;;;;;;9.35;3.60;;;9.60;76.00;;;;;;4998184;28;20359;-76
2022/12/27 14:14:41;;;;;;;8.35;3.17;;;9.60;76.00;;;;;;5009133;28;20065;-74
2022/12/27 14:17:43;;;;;;;7.80;3.15;;;9.60;76.00;;;;;;4996222;28;20037;-73
2022/12/27 14:20:17;;;;;;;;;;;9.60;75.90;;;;;;5002074;28;20026;-74
2022/12/27 14:23:15;;;;;;;7.45;2.95;;;9.60;76.00;;;;;;4979266;28;20338;-74
2022/12/27 14:26:23;;;;;;;9.15;2.75;;;9.60;75.90;;;;;;5015945;28;20041;-75
2022/12/27 14:29:10;;;;;;;7.70;3.28;;;9.60;75.90;;;;;;5041464;28;20458;-76
2022/12/27 14:32:15;;;;;;;8.15;3.45;;;9.60;76.00;;;;;;5030178;28;20057;-76
2022/12/27 14:35:18;;;;;;;8.77;2.67;;;9.60;76.00;;;;;;5031378;28;20029;-76
2022/12/27 14:38:15;;;;;;;8.18;2.90;;;9.60;76.00;;;;;;5017269;28;20045;-76
2022/12/27 14:40:59;;;;;;;9.00;3.05;;;9.50;76.00;;;;;;5018282;28;20458;-76
2022/12/27 14:44:09;;;;;;;7.30;2.55;;;9.50;76.10;;;;;;5024710;28;20033;-76
2022/12/27 14:47:22;;;;;;;7.32;2.80;;;9.50;76.10;;;;;;5057171;28;20044;-78
2022/12/27 14:50:27;;;;;;;6.80;2.67;;;9.50;76.20;;;;;;5038354;28;20124;-78
2022/12/27 14:53:18;;;;;;;9.88;2.58;;;9.40;76.10;;;;;;5034611;28;20033;-79
2022/12/27 14:56:16;;;;;;;7.70;2.60;;;9.40;76.20;;;;;;5035038;28;20057;-79
2022/12/27 14:58:52;;;;;;;9.85;2.95;;;9.40;76.30;;;;;;4996564;28;20084;-79
2022/12/27 15:01:57;;;;;;;8.05;2.72;;;9.40;76.30;;;;;;4997469;28;20026;-79
2022/12/27 15:04:43;;;;;;;8.48;3.13;;;9.40;76.30;;;;;;4999258;28;20050;-79
2022/12/27 15:07:30;;;;;;;8.23;2.90;;;9.40;76.30;;;;;;5013889;28;20037;-78
2022/12/27 15:10:10;;;;;;;9.45;3.05;;;9.40;76.30;;;;;;4997394;28;20061;-78
2022/12/27 15:13:11;;;;;;;8.73;3.45;;;9.40;77.00;;;;;;4996984;28;20095;-78